Time;durP1;ratioP1;P1;durP2;ratioP2;P2;SDS_P1;SDS_P2;PMS_P1;PMS_P2;Temp;Humidity;BMP_temperature;BMP_pressure;BME280_temperature;BME280_humidity;BME280_pressure;Samples;Min_cycle;Max_cycle;Signal;HPM_P1;HPM_P2
2023/12/06 00:01:23;;;;;;;55.40;50.15;;;;;;;;;;5010772;28;25077;-73
2023/12/06 00:03:49;;;;;;;55.15;49.70;;;;;;;;;;5009110;28;25087;-74
2023/12/06 00:06:15;;;;;;;53.42;48.50;;;;;;;;;;5010077;28;25067;-73
2023/12/06 00:08:41;;;;;;;52.58;47.75;;;;;;;;;;5011251;28;24977;-72
2023/12/06 00:11:07;;;;;;;52.28;46.95;;;;;;;;;;5009626;28;25051;-72
2023/12/06 00:13:33;;;;;;;52.25;47.60;;;;;;;;;;5010803;28;25054;-72
2023/12/06 00:16:00;;;;;;;48.70;44.20;;;;;;;;;;5008103;28;25489;-73
2023/12/06 00:18:27;;;;;;;51.95;47.03;;;;;;;;;;5010750;28;25128;-73
2023/12/06 00:20:53;;;;;;;49.03;44.53;;;;;;;;;;5010139;28;25062;-73
2023/12/06 00:23:19;;;;;;;47.05;42.55;;;;;;;;;;5008429;28;25060;-72
2023/12/06 00:25:45;;;;;;;48.30;43.78;;;;;;;;;;5009424;28;25107;-73
2023/12/06 00:28:11;;;;;;;48.25;43.55;;;;;;;;;;5008611;28;25096;-72
2023/12/06 00:30:37;;;;;;;48.00;43.85;;;;;;;;;;5008772;28;25204;-74
2023/12/06 00:33:03;;;;;;;50.95;46.40;;;;;;;;;;5006967;28;25058;-73
2023/12/06 00:35:29;;;;;;;48.25;43.85;;;;;;;;;;5009817;28;25141;-72
2023/12/06 00:37:55;;;;;;;49.65;45.00;;;;;;;;;;5008425;28;25063;-73
2023/12/06 00:40:22;;;;;;;48.90;44.40;;;;;;;;;;5005976;28;25080;-72
2023/12/06 00:42:48;;;;;;;46.83;42.50;;;;;;;;;;5006706;28;25057;-74
2023/12/06 00:45:14;;;;;;;46.28;42.05;;;;;;;;;;5007426;28;25077;-73
2023/12/06 00:47:40;;;;;;;48.15;43.85;;;;;;;;;;5005060;28;25073;-72
2023/12/06 00:50:06;;;;;;;46.08;41.92;;;;;;;;;;5003730;28;25075;-71
2023/12/06 00:52:32;;;;;;;46.88;42.58;;;;;;;;;;5009078;28;25054;-73
2023/12/06 00:54:58;;;;;;;48.67;44.28;;;;;;;;;;5008380;28;25051;-73
2023/12/06 00:57:24;;;;;;;45.22;41.25;;;;;;;;;;5007226;28;25053;-73
2023/12/06 00:59:50;;;;;;;46.53;42.22;;;;;;;;;;5008730;28;25077;-72
2023/12/06 01:02:16;;;;;;;46.72;42.42;;;;;;;;;;5005749;28;25066;-74
2023/12/06 01:04:42;;;;;;;45.17;41.33;;;;;;;;;;5007082;28;25098;-73
2023/12/06 01:07:08;;;;;;;46.80;42.33;;;;;;;;;;5005701;28;25083;-74
2023/12/06 01:09:34;;;;;;;45.40;40.88;;;;;;;;;;5006795;28;25068;-72
2023/12/06 01:12:00;;;;;;;44.95;40.83;;;;;;;;;;5008011;28;25079;-74
2023/12/06 01:14:26;;;;;;;44.60;40.92;;;;;;;;;;5007689;28;25052;-73
2023/12/06 01:16:52;;;;;;;43.55;39.60;;;;;;;;;;5005098;28;25063;-72
2023/12/06 01:19:18;;;;;;;44.58;40.30;;;;;;;;;;5003699;28;25167;-72
2023/12/06 01:21:44;;;;;;;43.72;39.85;;;;;;;;;;5007190;28;25153;-72
2023/12/06 01:24:10;;;;;;;43.92;39.85;;;;;;;;;;5004921;28;25081;-73
2023/12/06 01:26:36;;;;;;;43.30;39.40;;;;;;;;;;5008568;28;25102;-73
2023/12/06 01:29:04;;;;;;;43.83;40.03;;;;;;;;;;5007461;28;25100;-74
2023/12/06 01:31:30;;;;;;;41.70;38.13;;;;;;;;;;5004045;28;25065;-72
2023/12/06 01:33:56;;;;;;;42.78;39.08;;;;;;;;;;5006938;28;25073;-74
2023/12/06 01:36:22;;;;;;;43.72;39.72;;;;;;;;;;5007279;28;25062;-73
2023/12/06 01:38:49;;;;;;;43.78;39.85;;;;;;;;;;5005913;28;25057;-72
2023/12/06 01:41:15;;;;;;;44.20;39.90;;;;;;;;;;5004496;28;25145;-73
2023/12/06 01:43:44;;;;;;;44.75;40.85;;;;;;;;;;5004945;28;25042;-74
2023/12/06 01:46:10;;;;;;;44.17;39.92;;;;;;;;;;5006026;28;25068;-72
2023/12/06 01:48:41;;;;;;;45.55;41.20;;;;;;;;;;5005227;28;25075;-72
2023/12/06 01:51:07;;;;;;;44.60;40.35;;;;;;;;;;4999465;28;25157;-72
2023/12/06 01:53:33;;;;;;;43.17;39.53;;;;;;;;;;5008452;28;25062;-73
2023/12/06 01:56:00;;;;;;;40.08;36.13;;;;;;;;;;5005890;28;25065;-72
2023/12/06 01:58:28;;;;;;;41.05;37.00;;;;;;;;;;5007496;28;25072;-72
2023/12/06 02:00:54;;;;;;;41.80;37.65;;;;;;;;;;5013884;28;25148;-72
2023/12/06 02:03:20;;;;;;;38.95;35.25;;;;;;;;;;5023628;28;25124;-71
2023/12/06 02:05:47;;;;;;;40.85;36.65;;;;;;;;;;5024439;28;25098;-72
2023/12/06 02:08:13;;;;;;;39.55;35.72;;;;;;;;;;5017744;28;25064;-72
2023/12/06 02:10:39;;;;;;;42.38;37.80;;;;;;;;;;5015517;28;25061;-74
2023/12/06 02:13:05;;;;;;;45.38;38.47;;;;;;;;;;5011666;28;25074;-73
2023/12/06 02:15:32;;;;;;;42.15;37.65;;;;;;;;;;5014699;28;25060;-73
2023/12/06 02:17:58;;;;;;;39.53;35.42;;;;;;;;;;5034377;28;25058;-73
2023/12/06 02:20:24;;;;;;;40.55;36.38;;;;;;;;;;5028910;28;25062;-72
2023/12/06 02:22:51;;;;;;;39.00;35.08;;;;;;;;;;5016807;28;25104;-72
2023/12/06 02:25:17;;;;;;;41.05;36.70;;;;;;;;;;5016387;28;25104;-73
2023/12/06 02:27:44;;;;;;;37.95;34.25;;;;;;;;;;5012408;28;25165;-73
2023/12/06 02:30:10;;;;;;;37.50;33.80;;;;;;;;;;5014163;28;25102;-72
2023/12/06 02:32:37;;;;;;;38.30;34.22;;;;;;;;;;5015115;28;25092;-72
2023/12/06 02:35:17;;;;;;;39.33;35.28;;;;;;;;;;5010522;28;25091;-74
2023/12/06 02:37:44;;;;;;;46.50;34.80;;;;;;;;;;5005964;28;25079;-73
2023/12/06 02:40:11;;;;;;;42.83;35.28;;;;;;;;;;5012292;28;25056;-73
2023/12/06 02:42:37;;;;;;;37.95;34.40;;;;;;;;;;5008917;28;25164;-73
2023/12/06 02:45:03;;;;;;;36.72;33.35;;;;;;;;;;5010179;28;25061;-72
2023/12/06 02:47:29;;;;;;;39.72;35.72;;;;;;;;;;5010670;28;25054;-72
2023/12/06 02:49:55;;;;;;;41.45;37.20;;;;;;;;;;5007949;28;25077;-73
2023/12/06 02:52:21;;;;;;;41.53;37.10;;;;;;;;;;5011540;28;25074;-73
2023/12/06 02:54:47;;;;;;;40.90;36.55;;;;;;;;;;5008532;28;25124;-73
2023/12/06 02:57:13;;;;;;;40.95;36.67;;;;;;;;;;5007934;28;25055;-72
2023/12/06 02:59:39;;;;;;;42.65;38.13;;;;;;;;;;5008199;28;25067;-73
2023/12/06 03:02:05;;;;;;;39.92;35.65;;;;;;;;;;5008681;28;25076;-73
2023/12/06 03:04:31;;;;;;;43.42;39.08;;;;;;;;;;5004301;28;25074;-72
2023/12/06 03:06:57;;;;;;;40.78;36.50;;;;;;;;;;5006590;28;25121;-72
2023/12/06 03:09:23;;;;;;;44.40;39.78;;;;;;;;;;5005668;28;25063;-73
2023/12/06 03:11:49;;;;;;;47.45;42.40;;;;;;;;;;5004748;28;25161;-73
2023/12/06 03:14:15;;;;;;;48.60;43.42;;;;;;;;;;5006887;28;25189;-72
2023/12/06 03:16:41;;;;;;;48.83;43.63;;;;;;;;;;5005490;28;25128;-72
2023/12/06 03:19:07;;;;;;;52.75;47.33;;;;;;;;;;5007094;28;25063;-73
2023/12/06 03:21:33;;;;;;;51.40;46.08;;;;;;;;;;5007042;28;25055;-72
2023/12/06 03:23:59;;;;;;;53.78;48.42;;;;;;;;;;5007154;28;25156;-72
2023/12/06 03:26:25;;;;;;;49.92;45.28;;;;;;;;;;5008091;28;25061;-74
2023/12/06 03:28:51;;;;;;;52.40;47.28;;;;;;;;;;5008624;28;25117;-72
2023/12/06 03:31:17;;;;;;;52.60;47.45;;;;;;;;;;5006500;28;25062;-72
2023/12/06 03:33:43;;;;;;;53.55;48.50;;;;;;;;;;5013150;28;25103;-73
2023/12/06 03:36:13;;;;;;;54.13;48.88;;;;;;;;;;5007050;28;25063;-73
2023/12/06 03:38:39;;;;;;;56.53;50.53;;;;;;;;;;5011076;28;25056;-72
2023/12/06 03:41:05;;;;;;;55.28;49.65;;;;;;;;;;5009723;28;25096;-72
2023/12/06 03:43:31;;;;;;;52.70;47.95;;;;;;;;;;5010860;28;25177;-73
2023/12/06 03:45:57;;;;;;;50.95;45.97;;;;;;;;;;5007867;28;25063;-74
2023/12/06 03:48:23;;;;;;;51.97;46.05;;;;;;;;;;5007434;28;25101;-74
2023/12/06 03:50:49;;;;;;;51.83;46.83;;;;;;;;;;5004847;28;25062;-73
2023/12/06 03:53:15;;;;;;;52.55;47.47;;;;;;;;;;5008159;28;25071;-74
2023/12/06 03:55:41;;;;;;;48.08;43.67;;;;;;;;;;5002287;28;25151;-72
2023/12/06 03:58:07;;;;;;;49.70;44.85;;;;;;;;;;5008181;28;25059;-73
2023/12/06 04:00:33;;;;;;;48.78;44.00;;;;;;;;;;5011008;28;25080;-74
2023/12/06 04:02:59;;;;;;;48.95;44.28;;;;;;;;;;5010780;28;25072;-74
2023/12/06 04:05:25;;;;;;;47.33;42.28;;;;;;;;;;5008641;28;25084;-73
2023/12/06 04:07:51;;;;;;;48.42;43.90;;;;;;;;;;5010420;28;25113;-73
2023/12/06 04:10:17;;;;;;;47.70;43.25;;;;;;;;;;5010398;28;25088;-73
2023/12/06 04:12:43;;;;;;;46.67;42.28;;;;;;;;;;5011390;28;25068;-74
2023/12/06 04:15:11;;;;;;;45.97;42.08;;;;;;;;;;5008394;28;25075;-74
2023/12/06 04:17:37;;;;;;;46.45;42.03;;;;;;;;;;5013424;28;25078;-73
2023/12/06 04:20:06;;;;;;;44.15;40.33;;;;;;;;;;5011474;28;25071;-73
2023/12/06 04:22:32;;;;;;;42.38;38.72;;;;;;;;;;5012172;28;25068;-73
2023/12/06 04:24:58;;;;;;;42.40;38.33;;;;;;;;;;5016758;28;25076;-72
2023/12/06 04:27:24;;;;;;;43.47;39.70;;;;;;;;;;5021491;28;25059;-73
2023/12/06 04:29:50;;;;;;;46.45;42.05;;;;;;;;;;5035231;28;25070;-72
2023/12/06 04:32:16;;;;;;;45.47;40.78;;;;;;;;;;5023981;28;25057;-73
2023/12/06 04:35:02;;;;;;;42.70;39.00;;;;;;;;;;5021675;28;25077;-72
2023/12/06 04:37:28;;;;;;;43.47;39.60;;;;;;;;;;5019846;28;25131;-73
2023/12/06 04:39:54;;;;;;;43.15;39.22;;;;;;;;;;5020542;28;25056;-73
2023/12/06 04:42:20;;;;;;;45.00;41.03;;;;;;;;;;5020795;28;25079;-72
2023/12/06 04:44:46;;;;;;;44.33;40.33;;;;;;;;;;5024050;28;25047;-73
2023/12/06 04:47:12;;;;;;;42.92;38.92;;;;;;;;;;5019928;28;25055;-73
2023/12/06 04:49:38;;;;;;;43.55;39.63;;;;;;;;;;5018138;28;25112;-73
2023/12/06 04:52:05;;;;;;;44.40;40.55;;;;;;;;;;5013101;28;25054;-74
2023/12/06 04:54:31;;;;;;;43.92;39.95;;;;;;;;;;5017246;28;25165;-73
2023/12/06 04:56:57;;;;;;;42.60;38.75;;;;;;;;;;5014452;28;25151;-71
2023/12/06 04:59:23;;;;;;;41.30;37.47;;;;;;;;;;5014016;28;25085;-75
2023/12/06 05:01:49;;;;;;;43.90;39.63;;;;;;;;;;5014271;28;25065;-72
2023/12/06 05:04:15;;;;;;;40.03;36.75;;;;;;;;;;5012664;28;25076;-73
2023/12/06 05:06:41;;;;;;;42.90;39.20;;;;;;;;;;5011260;28;25081;-71
2023/12/06 05:09:07;;;;;;;43.53;39.55;;;;;;;;;;5011743;28;25081;-73
2023/12/06 05:11:34;;;;;;;42.63;38.03;;;;;;;;;;5018019;28;25073;-74
2023/12/06 05:13:59;;;;;;;42.63;38.55;;;;;;;;;;5017596;28;25061;-72
2023/12/06 05:16:25;;;;;;;41.08;37.25;;;;;;;;;;5011417;28;25096;-72
2023/12/06 05:18:52;;;;;;;41.70;37.60;;;;;;;;;;5014570;28;25055;-73
2023/12/06 05:21:18;;;;;;;40.70;37.00;;;;;;;;;;5007109;28;25376;-73
2023/12/06 05:23:44;;;;;;;37.97;34.78;;;;;;;;;;5013418;28;25076;-73
2023/12/06 05:26:10;;;;;;;40.05;36.63;;;;;;;;;;5012340;28;25055;-74
2023/12/06 05:28:36;;;;;;;41.45;37.67;;;;;;;;;;5007424;28;25075;-73
2023/12/06 05:31:02;;;;;;;39.58;35.67;;;;;;;;;;5022566;28;25057;-72
2023/12/06 05:33:28;;;;;;;39.00;35.45;;;;;;;;;;5027744;28;25057;-72
2023/12/06 05:35:57;;;;;;;37.63;33.88;;;;;;;;;;5027238;28;25073;-73
2023/12/06 05:38:23;;;;;;;37.47;33.80;;;;;;;;;;5040821;28;25065;-72
2023/12/06 05:40:49;;;;;;;37.20;33.47;;;;;;;;;;5027415;28;25067;-76
2023/12/06 05:43:15;;;;;;;37.67;33.90;;;;;;;;;;5024621;28;25083;-73
2023/12/06 05:45:41;;;;;;;40.13;36.28;;;;;;;;;;5019655;28;25060;-75
2023/12/06 05:48:08;;;;;;;38.97;35.38;;;;;;;;;;5015113;28;25094;-73
2023/12/06 05:50:34;;;;;;;41.58;37.15;;;;;;;;;;5013002;28;25053;-73
2023/12/06 05:53:00;;;;;;;40.30;36.40;;;;;;;;;;5016998;28;25064;-73
2023/12/06 05:55:26;;;;;;;37.13;33.58;;;;;;;;;;5026076;28;25071;-72
2023/12/06 05:57:53;;;;;;;37.00;33.15;;;;;;;;;;5015503;28;25068;-73
2023/12/06 06:00:19;;;;;;;38.97;35.33;;;;;;;;;;5010352;28;25055;-73
2023/12/06 06:02:45;;;;;;;37.83;34.33;;;;;;;;;;5014830;28;25055;-74
2023/12/06 06:05:11;;;;;;;38.10;34.40;;;;;;;;;;5014475;28;25060;-74
2023/12/06 06:07:37;;;;;;;38.45;34.65;;;;;;;;;;5012339;28;25125;-73
2023/12/06 06:10:04;;;;;;;37.58;33.85;;;;;;;;;;5014825;28;25081;-75
2023/12/06 06:12:30;;;;;;;40.78;33.60;;;;;;;;;;5013871;28;25074;-74
2023/12/06 06:14:56;;;;;;;35.33;31.67;;;;;;;;;;5015058;28;25105;-74
2023/12/06 06:17:22;;;;;;;33.55;30.10;;;;;;;;;;5013287;28;25075;-75
2023/12/06 06:19:48;;;;;;;35.05;30.88;;;;;;;;;;5015400;28;25059;-75
2023/12/06 06:22:14;;;;;;;33.83;30.42;;;;;;;;;;5013857;28;25055;-75
2023/12/06 06:24:40;;;;;;;34.42;31.05;;;;;;;;;;5013079;28;25073;-71
2023/12/06 06:27:06;;;;;;;32.40;29.23;;;;;;;;;;5023791;28;25073;-73
2023/12/06 06:29:32;;;;;;;34.08;30.75;;;;;;;;;;5006380;28;25122;-73
2023/12/06 06:31:58;;;;;;;35.40;30.05;;;;;;;;;;5005339;28;25060;-73
2023/12/06 06:34:24;;;;;;;33.85;30.52;;;;;;;;;;5004813;28;25430;-72
2023/12/06 06:36:50;;;;;;;33.78;30.27;;;;;;;;;;5005771;28;25100;-72
2023/12/06 06:39:16;;;;;;;34.15;30.80;;;;;;;;;;5005440;28;25053;-71
2023/12/06 06:41:42;;;;;;;32.45;29.38;;;;;;;;;;5007723;28;25070;-71
2023/12/06 06:44:08;;;;;;;32.55;29.27;;;;;;;;;;5006619;28;25063;-71
2023/12/06 06:46:34;;;;;;;34.42;29.40;;;;;;;;;;5006309;28;25146;-71
2023/12/06 06:49:00;;;;;;;32.70;29.30;;;;;;;;;;5009134;28;25154;-72
2023/12/06 06:51:35;;;;;;;33.20;29.58;;;;;;;;;;5009653;28;25111;-72
2023/12/06 06:54:02;;;;;;;31.58;27.83;;;;;;;;;;5007061;28;25088;-72
2023/12/06 06:56:28;;;;;;;35.75;29.00;;;;;;;;;;5005696;28;25095;-72
2023/12/06 06:58:54;;;;;;;29.88;27.13;;;;;;;;;;5001372;28;25075;-72
2023/12/06 07:01:20;;;;;;;30.95;27.45;;;;;;;;;;5008237;28;25059;-73
2023/12/06 07:03:46;;;;;;;35.00;27.73;;;;;;;;;;5009402;28;25085;-72
2023/12/06 07:06:12;;;;;;;31.65;26.33;;;;;;;;;;5005631;28;25048;-73
2023/12/06 07:08:39;;;;;;;29.13;26.00;;;;;;;;;;5010443;28;25072;-73
2023/12/06 07:11:06;;;;;;;27.42;24.42;;;;;;;;;;5007443;28;25078;-71
2023/12/06 07:13:32;;;;;;;28.35;23.52;;;;;;;;;;5009455;28;25065;-72
2023/12/06 07:15:58;;;;;;;42.00;22.20;;;;;;;;;;5008789;28;25068;-72
2023/12/06 07:18:27;;;;;;;25.33;22.27;;;;;;;;;;5007435;28;25182;-73
2023/12/06 07:20:53;;;;;;;27.98;22.85;;;;;;;;;;5012366;28;25085;-72
2023/12/06 07:23:19;;;;;;;28.58;22.55;;;;;;;;;;5009561;28;25049;-72
2023/12/06 07:25:46;;;;;;;23.52;21.13;;;;;;;;;;5014379;28;25135;-72
2023/12/06 07:28:12;;;;;;;26.73;22.00;;;;;;;;;;5019008;28;25129;-72
2023/12/06 07:30:38;;;;;;;26.48;21.40;;;;;;;;;;5004857;28;25060;-73
2023/12/06 07:33:04;;;;;;;28.80;21.80;;;;;;;;;;5005915;28;25053;-74
2023/12/06 07:35:30;;;;;;;25.38;21.35;;;;;;;;;;5006881;28;25065;-73
2023/12/06 07:37:56;;;;;;;28.35;21.33;;;;;;;;;;5005000;28;25140;-73
2023/12/06 07:40:22;;;;;;;23.60;21.25;;;;;;;;;;5002327;28;25064;-71
2023/12/06 07:42:51;;;;;;;24.77;21.30;;;;;;;;;;5004319;28;25060;-73
2023/12/06 07:45:17;;;;;;;27.85;20.80;;;;;;;;;;4999971;28;25146;-73
2023/12/06 07:47:43;;;;;;;29.65;21.73;;;;;;;;;;5001735;28;25048;-72
2023/12/06 07:50:09;;;;;;;26.17;22.67;;;;;;;;;;5005269;28;25065;-73
2023/12/06 07:52:36;;;;;;;26.65;22.00;;;;;;;;;;5005372;28;25072;-73
2023/12/06 07:55:06;;;;;;;28.25;22.65;;;;;;;;;;5000436;28;25078;-73
2023/12/06 07:57:35;;;;;;;26.05;23.00;;;;;;;;;;5003714;28;25166;-74
2023/12/06 08:00:02;;;;;;;26.15;22.83;;;;;;;;;;5004954;28;25062;-72
2023/12/06 08:02:28;;;;;;;30.45;23.23;;;;;;;;;;5002760;28;25158;-73
2023/12/06 08:04:55;;;;;;;24.85;22.20;;;;;;;;;;5001698;28;25065;-72
2023/12/06 08:07:22;;;;;;;27.55;21.50;;;;;;;;;;5017479;28;25167;-72
2023/12/06 08:09:49;;;;;;;26.10;22.60;;;;;;;;;;5004418;28;25128;-72
2023/12/06 08:12:15;;;;;;;27.00;24.15;;;;;;;;;;5008071;28;25061;-72
2023/12/06 08:14:43;;;;;;;26.50;21.98;;;;;;;;;;5005403;28;25066;-73
2023/12/06 08:17:09;;;;;;;24.67;21.08;;;;;;;;;;5006267;28;25064;-71
2023/12/06 08:19:35;;;;;;;25.13;19.85;;;;;;;;;;5006045;28;25117;-73
2023/12/06 08:22:01;;;;;;;26.08;20.52;;;;;;;;;;5005889;28;25112;-74
2023/12/06 08:24:27;;;;;;;27.90;19.35;;;;;;;;;;5005756;28;25069;-74
2023/12/06 08:26:53;;;;;;;22.75;18.83;;;;;;;;;;5005758;28;25077;-73
2023/12/06 08:29:19;;;;;;;20.55;17.98;;;;;;;;;;5003936;28;25068;-72
2023/12/06 08:31:46;;;;;;;21.83;18.35;;;;;;;;;;5001145;28;25056;-73
2023/12/06 08:34:12;;;;;;;26.02;17.83;;;;;;;;;;5005296;28;25066;-72
2023/12/06 08:36:38;;;;;;;20.40;16.90;;;;;;;;;;5003355;28;25077;-73
2023/12/06 08:39:03;;;;;;;22.75;16.75;;;;;;;;;;5003912;28;25137;-72
2023/12/06 08:41:29;;;;;;;23.40;16.85;;;;;;;;;;4998526;28;25064;-72
2023/12/06 08:43:55;;;;;;;20.90;16.80;;;;;;;;;;5004741;28;25053;-72
2023/12/06 08:46:23;;;;;;;22.42;17.42;;;;;;;;;;5005064;28;25049;-72
2023/12/06 08:48:49;;;;;;;19.40;17.38;;;;;;;;;;5002163;28;25081;-72
2023/12/06 08:51:15;;;;;;;18.75;16.38;;;;;;;;;;5002157;28;25067;-73
2023/12/06 08:53:41;;;;;;;17.73;15.77;;;;;;;;;;5014441;28;25155;-73
2023/12/06 08:56:07;;;;;;;20.05;14.02;;;;;;;;;;5024549;28;25084;-72
2023/12/06 08:58:33;;;;;;;21.60;13.85;;;;;;;;;;5017837;28;25071;-73
2023/12/06 09:00:59;;;;;;;18.55;13.40;;;;;;;;;;5015959;28;25056;-72
2023/12/06 09:03:25;;;;;;;16.70;13.82;;;;;;;;;;5013521;28;25047;-71
2023/12/06 09:05:51;;;;;;;20.30;12.98;;;;;;;;;;5009096;28;25144;-72
2023/12/06 09:08:17;;;;;;;21.35;13.48;;;;;;;;;;5006872;28;25106;-73
2023/12/06 09:10:43;;;;;;;20.27;14.10;;;;;;;;;;5005848;28;25116;-72
2023/12/06 09:13:08;;;;;;;15.88;13.20;;;;;;;;;;5004843;28;25054;-71
2023/12/06 09:15:34;;;;;;;18.35;13.43;;;;;;;;;;5007926;28;25106;-72
2023/12/06 09:18:00;;;;;;;21.35;16.05;;;;;;;;;;5011648;28;25084;-73
2023/12/06 09:20:26;;;;;;;17.98;14.45;;;;;;;;;;5013222;28;25138;-72
2023/12/06 09:22:52;;;;;;;21.45;15.82;;;;;;;;;;5005351;28;25067;-73
2023/12/06 09:25:18;;;;;;;23.55;16.20;;;;;;;;;;5004445;28;25089;-72
2023/12/06 09:27:44;;;;;;;19.77;15.82;;;;;;;;;;5004039;28;25055;-72
2023/12/06 09:30:10;;;;;;;18.50;15.85;;;;;;;;;;5002718;28;25091;-72
2023/12/06 09:32:36;;;;;;;19.30;16.25;;;;;;;;;;4999186;28;25138;-72
2023/12/06 09:35:03;;;;;;;19.63;16.52;;;;;;;;;;5002749;28;25141;-72
2023/12/06 09:37:29;;;;;;;19.15;16.95;;;;;;;;;;5004775;28;25065;-73
2023/12/06 09:39:54;;;;;;;22.52;17.00;;;;;;;;;;5005325;28;25068;-73
2023/12/06 09:42:20;;;;;;;17.63;15.82;;;;;;;;;;5015228;28;25115;-73
2023/12/06 09:44:47;;;;;;;33.58;19.77;;;;;;;;;;5014473;28;25064;-73
2023/12/06 09:47:13;;;;;;;24.33;17.20;;;;;;;;;;5012553;28;25077;-73
2023/12/06 09:49:39;;;;;;;28.02;17.88;;;;;;;;;;5015710;28;25067;-73
2023/12/06 09:52:11;;;;;;;24.83;18.17;;;;;;;;;;5017708;28;25056;-73
2023/12/06 09:54:43;;;;;;;23.23;16.20;;;;;;;;;;5015352;28;25109;-73
2023/12/06 09:57:10;;;;;;;;;;;;;;;;;;5008390;28;25123;-72
2023/12/06 09:59:36;;;;;;;22.05;17.80;;;;;;;;;;5006109;28;24085;-73
2023/12/06 10:02:02;;;;;;;20.38;18.17;;;;;;;;;;5006161;28;25065;-73
2023/12/06 10:04:28;;;;;;;24.15;17.80;;;;;;;;;;5006222;28;25169;-72
2023/12/06 10:06:54;;;;;;;20.00;16.15;;;;;;;;;;5012843;28;25070;-72
2023/12/06 10:09:20;;;;;;;24.55;17.25;;;;;;;;;;5005915;28;25074;-72
2023/12/06 10:11:47;;;;;;;19.95;16.75;;;;;;;;;;5003858;28;25064;-71
2023/12/06 10:14:17;;;;;;;18.85;16.65;;;;;;;;;;5003480;28;25057;-73
2023/12/06 10:16:43;;;;;;;25.25;17.63;;;;;;;;;;5003261;28;25089;-72
2023/12/06 10:19:09;;;;;;;25.10;18.00;;;;;;;;;;5005141;28;25171;-73
2023/12/06 10:21:35;;;;;;;26.45;17.80;;;;;;;;;;5010067;28;25092;-72
2023/12/06 10:24:01;;;;;;;22.55;16.85;;;;;;;;;;5006741;28;25061;-72
2023/12/06 10:26:31;;;;;;;23.40;17.60;;;;;;;;;;5010364;28;25059;-72
2023/12/06 10:28:57;;;;;;;21.33;17.35;;;;;;;;;;5007271;28;25066;-72
2023/12/06 10:31:23;;;;;;;29.25;17.95;;;;;;;;;;5007218;28;25064;-72
2023/12/06 10:33:54;;;;;;;20.35;16.08;;;;;;;;;;5002807;28;25068;-72
2023/12/06 10:36:21;;;;;;;21.10;16.60;;;;;;;;;;5003185;28;25106;-73
2023/12/06 10:38:47;;;;;;;23.13;18.55;;;;;;;;;;5008227;28;25107;-72
2023/12/06 10:41:18;;;;;;;23.83;17.45;;;;;;;;;;5006304;28;25147;-72
2023/12/06 10:43:45;;;;;;;19.17;16.25;;;;;;;;;;5006322;28;25143;-71
2023/12/06 10:46:11;;;;;;;18.45;15.75;;;;;;;;;;5007758;28;25063;-72
2023/12/06 10:48:38;;;;;;;19.67;15.50;;;;;;;;;;5007019;28;25065;-73
2023/12/06 10:51:04;;;;;;;15.60;13.70;;;;;;;;;;5003781;28;25053;-73
2023/12/06 10:53:30;;;;;;;17.98;14.63;;;;;;;;;;5022713;28;25055;-72
2023/12/06 10:55:58;;;;;;;18.65;14.48;;;;;;;;;;5005820;28;25066;-72
2023/12/06 10:58:25;;;;;;;16.35;13.60;;;;;;;;;;5008577;28;25161;-72
2023/12/06 11:00:51;;;;;;;22.83;16.50;;;;;;;;;;5008196;28;25050;-73
2023/12/06 11:03:17;;;;;;;18.42;15.60;;;;;;;;;;5005926;28;25104;-72
2023/12/06 11:05:48;;;;;;;20.05;15.95;;;;;;;;;;5005386;28;25151;-72
2023/12/06 11:08:21;;;;;;;24.77;19.33;;;;;;;;;;5010853;28;25072;-72
2023/12/06 11:10:50;;;;;;;16.75;15.02;;;;;;;;;;5006802;28;25062;-72
2023/12/06 11:13:32;;;;;;;18.42;15.70;;;;;;;;;;5007831;28;25066;-72
2023/12/06 11:16:08;;;;;;;20.90;15.77;;;;;;;;;;5005820;28;25062;-72
2023/12/06 11:18:45;;;;;;;16.17;14.48;;;;;;;;;;5006571;28;25133;-71
2023/12/06 11:21:14;;;;;;;19.65;13.80;;;;;;;;;;5007621;28;25076;-71
2023/12/06 11:23:46;;;;;;;17.45;14.15;;;;;;;;;;5006103;28;25057;-71
2023/12/06 11:26:12;;;;;;;17.92;14.10;;;;;;;;;;5005512;28;25098;-70
2023/12/06 11:28:41;;;;;;;17.05;15.20;;;;;;;;;;5006865;28;25085;-70
2023/12/06 11:31:08;;;;;;;24.00;16.52;;;;;;;;;;5005144;28;25069;-73
2023/12/06 11:33:34;;;;;;;18.27;16.48;;;;;;;;;;5005799;28;25092;-72
2023/12/06 11:36:01;;;;;;;18.05;16.33;;;;;;;;;;5004506;28;25102;-72
2023/12/06 11:38:33;;;;;;;18.50;16.50;;;;;;;;;;5005883;28;25146;-72
2023/12/06 11:41:00;;;;;;;18.55;15.98;;;;;;;;;;5004304;28;25055;-71
2023/12/06 11:43:38;;;;;;;17.30;15.60;;;;;;;;;;5006908;28;25072;-72
2023/12/06 11:46:04;;;;;;;20.48;16.33;;;;;;;;;;5003804;28;25062;-72
2023/12/06 11:48:30;;;;;;;17.90;15.10;;;;;;;;;;5006681;28;25057;-72
2023/12/06 11:50:57;;;;;;;15.25;13.70;;;;;;;;;;5003465;28;25145;-73
2023/12/06 11:53:24;;;;;;;15.57;14.07;;;;;;;;;;5003963;28;25109;-72
2023/12/06 11:55:50;;;;;;;20.23;15.30;;;;;;;;;;5004486;28;25115;-71
2023/12/06 11:58:16;;;;;;;18.13;14.82;;;;;;;;;;5006669;28;25077;-73
2023/12/06 12:00:43;;;;;;;15.65;14.05;;;;;;;;;;5006111;28;25131;-72
2023/12/06 12:03:10;;;;;;;14.20;12.65;;;;;;;;;;5006202;28;25068;-71
2023/12/06 12:05:36;;;;;;;19.60;14.70;;;;;;;;;;5004637;28;25081;-70
2023/12/06 12:08:02;;;;;;;16.38;13.45;;;;;;;;;;5005001;28;25095;-70
2023/12/06 12:10:28;;;;;;;15.65;14.07;;;;;;;;;;5004936;28;25163;-70
2023/12/06 12:12:54;;;;;;;17.75;14.65;;;;;;;;;;5006113;28;25066;-72
2023/12/06 12:15:20;;;;;;;16.70;14.55;;;;;;;;;;5004659;28;25049;-71
2023/12/06 12:17:46;;;;;;;16.92;14.52;;;;;;;;;;5008088;28;25076;-71
2023/12/06 12:20:13;;;;;;;16.50;15.00;;;;;;;;;;5005112;28;25130;-70
2023/12/06 12:22:45;;;;;;;15.85;14.27;;;;;;;;;;5006183;28;25072;-71
2023/12/06 12:25:11;;;;;;;;;;;;;;;;;;5006306;28;25047;-71
2023/12/06 12:27:38;;;;;;;18.83;13.18;;;;;;;;;;5032696;28;25146;-72
2023/12/06 12:30:04;;;;;;;14.52;12.95;;;;;;;;;;5022519;28;25071;-71
2023/12/06 12:32:32;;;;;;;13.70;12.30;;;;;;;;;;5022325;28;25120;-70
2023/12/06 12:34:58;;;;;;;14.25;12.13;;;;;;;;;;5009841;28;25059;-70
2023/12/06 12:37:25;;;;;;;11.90;11.00;;;;;;;;;;5010399;28;25052;-71
2023/12/06 12:39:51;;;;;;;15.20;12.00;;;;;;;;;;5011144;28;25180;-71
2023/12/06 12:42:17;;;;;;;13.02;12.02;;;;;;;;;;5008943;28;25180;-71
2023/12/06 12:44:43;;;;;;;15.38;11.80;;;;;;;;;;5011771;28;25070;-71
2023/12/06 12:47:09;;;;;;;12.88;10.70;;;;;;;;;;5010505;28;25109;-71
2023/12/06 12:49:35;;;;;;;12.15;11.30;;;;;;;;;;5005395;28;25061;-70
2023/12/06 12:52:02;;;;;;;12.85;11.50;;;;;;;;;;5004005;28;25051;-71
2023/12/06 12:54:28;;;;;;;12.18;11.00;;;;;;;;;;5006029;28;25074;-70
2023/12/06 12:56:54;;;;;;;12.07;10.95;;;;;;;;;;5004594;28;25065;-72
2023/12/06 12:59:21;;;;;;;14.15;12.38;;;;;;;;;;5001094;28;25066;-70
2023/12/06 13:01:50;;;;;;;13.35;12.20;;;;;;;;;;5005565;28;25071;-71
2023/12/06 13:04:16;;;;;;;12.80;11.50;;;;;;;;;;5004241;28;25071;-72
2023/12/06 13:06:42;;;;;;;13.77;10.75;;;;;;;;;;5000768;28;25057;-71
2023/12/06 13:09:08;;;;;;;11.98;10.88;;;;;;;;;;5006386;28;25058;-70
2023/12/06 13:11:35;;;;;;;10.75;9.73;;;;;;;;;;5002586;28;25064;-70
2023/12/06 13:14:01;;;;;;;12.05;10.77;;;;;;;;;;5001906;28;25060;-69
2023/12/06 13:16:27;;;;;;;11.10;10.15;;;;;;;;;;5004836;28;25062;-70
2023/12/06 13:18:53;;;;;;;12.20;11.00;;;;;;;;;;5005404;28;25093;-72
2023/12/06 13:21:19;;;;;;;11.32;10.32;;;;;;;;;;5005101;28;25076;-71
2023/12/06 13:23:45;;;;;;;11.02;9.95;;;;;;;;;;5004220;28;25167;-71
2023/12/06 13:26:11;;;;;;;11.13;10.00;;;;;;;;;;5005050;28;25101;-70
2023/12/06 13:28:37;;;;;;;11.13;10.10;;;;;;;;;;5005378;28;25062;-71
2023/12/06 13:31:03;;;;;;;11.77;10.52;;;;;;;;;;5006097;28;25099;-70
2023/12/06 13:33:29;;;;;;;11.45;10.30;;;;;;;;;;5006854;28;25080;-71
2023/12/06 13:35:55;;;;;;;10.70;9.80;;;;;;;;;;5003777;28;25076;-71
2023/12/06 13:38:21;;;;;;;11.70;10.70;;;;;;;;;;5004541;28;25131;-71
2023/12/06 13:40:47;;;;;;;11.95;9.85;;;;;;;;;;5004346;28;25146;-72
2023/12/06 13:43:15;;;;;;;10.98;9.40;;;;;;;;;;5005395;28;25101;-71
2023/12/06 13:45:41;;;;;;;10.57;9.10;;;;;;;;;;5007595;28;25049;-71
2023/12/06 13:48:07;;;;;;;12.25;9.20;;;;;;;;;;5015388;28;25125;-70
2023/12/06 13:50:33;;;;;;;9.10;8.30;;;;;;;;;;5004748;28;25064;-71
2023/12/06 13:53:00;;;;;;;9.57;8.10;;;;;;;;;;5017691;28;25049;-72
2023/12/06 13:55:26;;;;;;;10.77;8.93;;;;;;;;;;5003347;28;25073;-71
2023/12/06 13:57:52;;;;;;;11.75;8.55;;;;;;;;;;5004503;28;25080;-71
2023/12/06 14:00:19;;;;;;;9.85;8.85;;;;;;;;;;5022849;28;25074;-72
2023/12/06 14:02:45;;;;;;;9.23;8.32;;;;;;;;;;5004345;28;25059;-71
2023/12/06 14:05:11;;;;;;;7.30;6.65;;;;;;;;;;5023107;28;25060;-73
2023/12/06 14:07:37;;;;;;;7.93;7.20;;;;;;;;;;4999713;28;25057;-72
2023/12/06 14:10:04;;;;;;;11.23;10.13;;;;;;;;;;5009824;28;25060;-72
2023/12/06 14:12:30;;;;;;;13.15;11.93;;;;;;;;;;5009120;28;25077;-71
2023/12/06 14:14:56;;;;;;;17.60;16.25;;;;;;;;;;5009925;28;25129;-70